Wasilla Airport Wasilla US
ICAO: PAWS
IATA:
Category: Medium
Scheduled Services:

Elevation: 354 ft
TransAlt. 18000 ft.

Airport Communications:
ANCHORAGE APP/DEP:119.1
AWOS 3:135.25
CTAF:122.8

PAWS Zoom In..

If you have problems with the map follow the link
https://www.worldairports.se/pages/airport.php?
ICAO=PAWS

Runways:

(A) RW 03 length 3700 ft width 75 ft
---- / hdg 33

(B) RW 03L length 1690 ft width 60 ft
---- / hdg 33

(C) RW 21 length 3700 ft width 75 ft
---- / hdg 213

(D) RW 21R length 1690 ft width 60 ft
---- / hdg 213

Location; PAWS
Day. 21 / Time. 05.56 Zulu
* Altimeter: 29.45
* Temperature: -09° c. -15.8°f.
* Wind from: 080° Speed 07 kn.
Dewpoint: -13° c.
Visibility: 10 Statute Miles.
Clouds: Overcast 4000 ft.

PAWS 210556Z AUTO 08007KT 10SM OVC040 M09/M13 A2945 RMK AO2 SLP984 60000 T10941133 11083 21100 51012 FZRANO


Wind From 080°
Speed 07 kn.

 
 
jpsmedia worldairports.se 2020   terms of use